Lahore, Pakistan
Current Conditions -  °F | °C
As of 1:30 PM on Thursday 18 Dec 2014 (Local Time) from OPLA Reporting Station
Haze Haze  
Wind Chill: 52°   Ceiling: Unl
Heat Index: 52°   Visibility: 0.5mi
Dew Point: 48°   Wind: 0mph
Humidity: 88%   Direction: NA
Pressure: NA   Gusts: NA
Location:  31.56°N, 74.35°E
Report Text: OPLA 180830Z 00000KT 0800 BR FEW100 11/09 Q1021/A30.15
Loading
Personal Weather Stations






























Interactive Weather Map New forecast layout! Learn more

10-Day Weather Forecast

Advertisements
Track Severe Weather on mobile